Sakigake — JD4118 — position and weather

sailwx.info

Track history (hours):
 
Tides and Currents Weather Stations Pressure Air Temp Water Temp Dewpoint Dewpoint Depression Visibility Wind Speed Wind Dir Waves Ship Positions

Sakigake

Last reported at 2018-Jun-22 16:22 UTC. Time now 2018-Jun-23 19:31 UTC.
Position N 35°37' E 139°58'.

Length 80 m; draft 3.7 m.

Type: Cargo ship. MMSI: 431008777.

Date/timePositionNaut miles runAvg speedWind from/ knotsBaromVisibWave heightAir tempDewpointWater temp
2018-Jun-22 16:22N 35°37' E 139°58'0 0.0
2018-Jun-22 10:50N 35°37' E 139°58'0 0.0
2018-Jun-22 10:24N 35°37' E 139°58'8 8.7
2018-Jun-22 09:32N 35°30' E 139°53'112.8
2018-Jun-22 09:29N 35°30' E 139°53'712.9
2018-Jun-22 08:56N 35°25' E 139°47'512.6
2018-Jun-22 08:30N 35°20' E 139°44'611.6
2018-Jun-22 07:59N 35°14' E 139°47'24910.9
2018-Jun-21 09:05N 33°54' E 135°01'412.0
2018-Jun-21 08:43N 33°57' E 134°57'611.8
2018-Jun-21 08:12N 34°02' E 134°52'312.0
2018-Jun-21 07:55N 34°04' E 134°49'1012.3
2018-Jun-21 07:07N 34°12' E 134°41'1011.2
2018-Jun-21 06:15N 34°18' E 134°32'312.1
2018-Jun-21 06:00N 34°19' E 134°29'  
2018-Jun-16 10:32N 34°24' E 134°16'313.7
2018-Jun-16 10:18N 34°23' E 134°20'413.6
2018-Jun-16 10:00N 34°21' E 134°24'713.6
2018-Jun-16 09:29N 34°18' E 134°32'813.0
2018-Jun-16 08:50N 34°13' E 134°40'712.2
2018-Jun-16 08:18N 34°08' E 134°45'512.7
2018-Jun-16 07:54N 34°04' E 134°49'712.7
2018-Jun-16 07:20N 33°59' E 134°55'412.4
2018-Jun-16 06:58N 33°56' E 134°58'24511.2
2018-Jun-15 09:06N 35°08' E 139°42'213.5
2018-Jun-15 08:58N 35°10' E 139°44'612.3
2018-Jun-15 08:30N 35°15' E 139°46'612.3
2018-Jun-15 08:00N 35°20' E 139°42'612.1
2018-Jun-15 07:31N 35°26' E 139°45'713.1
2018-Jun-15 07:00N 35°30' E 139°51'2 0.0
2018-Jun-13 19:32N 35°31' E 139°53'212.0
2018-Jun-13 19:24N 35°30' E 139°52'612.6
2018-Jun-13 18:57N 35°26' E 139°48'612.4
2018-Jun-13 18:30N 35°21' E 139°45'712.1
2018-Jun-13 17:58N 35°14' E 139°47'611.7
2018-Jun-13 17:27N 35°08' E 139°46'24611.3
2018-Jun-12 19:39N 33°52' E 135°02'212.5
2018-Jun-12 19:30N 33°53' E 135°01'612.6
2018-Jun-12 19:00N 33°58' E 134°56'812.7
2018-Jun-12 18:21N 34°04' E 134°49'612.7
2018-Jun-12 17:55N 34°08' E 134°45'613.2
2018-Jun-12 17:28N 34°13' E 134°40'  
Track history (hours):
 
Tides and Currents Weather Stations Pressure Air Temp Water Temp Dewpoint Dewpoint Depression Visibility Wind Speed Wind Dir Waves Ship Positions

Sakigake

Last reported at 2018-Jun-22 16:22 UTC. Time now 2018-Jun-23 19:31 UTC.
Position N 35°37' E 139°58'.

Length 80 m; draft 3.7 m.

Type: Cargo ship. MMSI: 431008777.

Date/timePositionNaut miles runAvg speedWind from/ knotsBaromVisibWave heightAir tempDewpointWater temp
2018-Jun-22 16:22N 35°37' E 139°58'0 0.0
2018-Jun-22 10:50N 35°37' E 139°58'0 0.0
2018-Jun-22 10:24N 35°37' E 139°58'8 8.7
2018-Jun-22 09:32N 35°30' E 139°53'112.8
2018-Jun-22 09:29N 35°30' E 139°53'712.9
2018-Jun-22 08:56N 35°25' E 139°47'512.6
2018-Jun-22 08:30N 35°20' E 139°44'611.6
2018-Jun-22 07:59N 35°14' E 139°47'24910.9
2018-Jun-21 09:05N 33°54' E 135°01'412.0
2018-Jun-21 08:43N 33°57' E 134°57'611.8
2018-Jun-21 08:12N 34°02' E 134°52'312.0
2018-Jun-21 07:55N 34°04' E 134°49'1012.3
2018-Jun-21 07:07N 34°12' E 134°41'1011.2
2018-Jun-21 06:15N 34°18' E 134°32'312.1
2018-Jun-21 06:00N 34°19' E 134°29'  
2018-Jun-16 10:32N 34°24' E 134°16'313.7
2018-Jun-16 10:18N 34°23' E 134°20'413.6
2018-Jun-16 10:00N 34°21' E 134°24'713.6
2018-Jun-16 09:29N 34°18' E 134°32'813.0
2018-Jun-16 08:50N 34°13' E 134°40'712.2
2018-Jun-16 08:18N 34°08' E 134°45'512.7
2018-Jun-16 07:54N 34°04' E 134°49'712.7
2018-Jun-16 07:20N 33°59' E 134°55'412.4
2018-Jun-16 06:58N 33°56' E 134°58'24511.2
2018-Jun-15 09:06N 35°08' E 139°42'213.5
2018-Jun-15 08:58N 35°10' E 139°44'612.3
2018-Jun-15 08:30N 35°15' E 139°46'612.3
2018-Jun-15 08:00N 35°20' E 139°42'612.1
2018-Jun-15 07:31N 35°26' E 139°45'713.1
2018-Jun-15 07:00N 35°30' E 139°51'2 0.0
2018-Jun-13 19:32N 35°31' E 139°53'212.0
2018-Jun-13 19:24N 35°30' E 139°52'612.6
2018-Jun-13 18:57N 35°26' E 139°48'612.4
2018-Jun-13 18:30N 35°21' E 139°45'712.1
2018-Jun-13 17:58N 35°14' E 139°47'611.7
2018-Jun-13 17:27N 35°08' E 139°46'24611.3
2018-Jun-12 19:39N 33°52' E 135°02'212.5
2018-Jun-12 19:30N 33°53' E 135°01'612.6
2018-Jun-12 19:00N 33°58' E 134°56'812.7
2018-Jun-12 18:21N 34°04' E 134°49'612.7
2018-Jun-12 17:55N 34°08' E 134°45'613.2
2018-Jun-12 17:28N 34°13' E 134°40'  

Dump ship's entire track history